Time;durP1;ratioP1;P1;durP2;ratioP2;P2;SDS_P1;SDS_P2;PMS_P1;PMS_P2;Temp;Humidity;BMP_temperature;BMP_pressure;BME280_temperature;BME280_humidity;BME280_pressure;Samples;Min_cycle;Max_cycle;Signal;HPM_P1;HPM_P2
2022/11/13 00:00:34;;;;;;;31.88;18.38;;;;;;;;;;5073631;28;20039;-66
2022/11/13 00:02:59;;;;;;;34.80;18.38;;;;;;;;;;5073564;28;20036;-66
2022/11/13 00:05:25;;;;;;;32.75;17.02;;;;;;;;;;5073575;28;20089;-67
2022/11/13 00:07:50;;;;;;;29.42;18.33;;;;;;;;;;5073548;28;20555;-67
2022/11/13 00:10:16;;;;;;;29.15;17.77;;;;;;;;;;5073186;28;20023;-67
2022/11/13 00:12:41;;;;;;;31.45;18.75;;;;;;;;;;5073447;28;20032;-66
2022/11/13 00:15:07;;;;;;;31.55;19.63;;;;;;;;;;5073312;28;20028;-67
2022/11/13 00:17:33;;;;;;;30.98;19.45;;;;;;;;;;5073378;28;20020;-67
2022/11/13 00:19:58;;;;;;;31.15;19.00;;;;;;;;;;5073256;28;20519;-67
2022/11/13 00:22:24;;;;;;;29.70;19.58;;;;;;;;;;5073296;28;20085;-67
2022/11/13 00:24:49;;;;;;;28.65;18.80;;;;;;;;;;5072903;28;20471;-67
2022/11/13 00:27:15;;;;;;;32.45;19.25;;;;;;;;;;5073111;28;20036;-67
2022/11/13 00:29:40;;;;;;;31.88;20.17;;;;;;;;;;5073011;28;20036;-67
2022/11/13 00:32:06;;;;;;;34.08;20.33;;;;;;;;;;5072822;28;20021;-65
2022/11/13 00:34:31;;;;;;;35.75;20.85;;;;;;;;;;5073051;28;20028;-67
2022/11/13 00:36:57;;;;;;;35.38;21.05;;;;;;;;;;5072913;28;20036;-67
2022/11/13 00:39:22;;;;;;;39.75;22.20;;;;;;;;;;5072301;28;20021;-66
2022/11/13 00:41:47;;;;;;;38.75;22.08;;;;;;;;;;5072964;28;20016;-66
2022/11/13 00:44:13;;;;;;;37.13;23.15;;;;;;;;;;5072889;28;20520;-65
2022/11/13 00:46:38;;;;;;;37.15;22.30;;;;;;;;;;5072888;28;20039;-65
2022/11/13 00:49:04;;;;;;;39.00;22.00;;;;;;;;;;5072790;28;20029;-65
2022/11/13 00:51:30;;;;;;;45.03;22.20;;;;;;;;;;5072857;28;20112;-66
2022/11/13 00:53:56;;;;;;;38.75;21.45;;;;;;;;;;5071355;28;20433;-65
2022/11/13 00:56:21;;;;;;;37.83;20.80;;;;;;;;;;5072731;28;20025;-67
2022/11/13 00:58:47;;;;;;;39.00;22.20;;;;;;;;;;5072889;28;20028;-65
2022/11/13 01:01:15;;;;;;;41.25;22.35;;;;;;;;;;5072740;28;20024;-66
2022/11/13 01:03:41;;;;;;;46.22;22.65;;;;;;;;;;5072581;28;20044;-65
2022/11/13 01:06:12;;;;;;;49.05;22.33;;;;;;;;;;5072723;28;20013;-65
2022/11/13 01:08:38;;;;;;;35.15;21.00;;;;;;;;;;5072385;28;20024;-65
2022/11/13 01:11:12;;;;;;;43.50;21.13;;;;;;;;;;5072480;28;20032;-65
2022/11/13 01:13:39;;;;;;;40.42;20.95;;;;;;;;;;5072540;28;20274;-65
2022/11/13 01:16:06;;;;;;;38.33;20.00;;;;;;;;;;5066689;28;20025;-66
2022/11/13 01:18:32;;;;;;;37.63;20.02;;;;;;;;;;5069564;28;20013;-65
2022/11/13 01:21:15;;;;;;;40.53;20.73;;;;;;;;;;5070875;28;20020;-67
2022/11/13 01:23:41;;;;;;;39.28;21.88;;;;;;;;;;5071247;28;20384;-65
2022/11/13 01:26:16;;;;;;;38.40;20.75;;;;;;;;;;5071981;28;20068;-65
2022/11/13 01:28:43;;;;;;;37.55;20.42;;;;;;;;;;5070986;28;20025;-65
2022/11/13 01:31:11;;;;;;;43.25;21.05;;;;;;;;;;5071202;28;20356;-64
2022/11/13 01:33:37;;;;;;;40.47;20.52;;;;;;;;;;5071639;28;20158;-66
2022/11/13 01:36:10;;;;;;;42.30;20.65;;;;;;;;;;5071792;28;20096;-65
2022/11/13 01:38:36;;;;;;;46.08;21.60;;;;;;;;;;5069394;28;20392;-65
2022/11/13 01:41:01;;;;;;;37.22;20.40;;;;;;;;;;5071431;28;20033;-66
2022/11/13 01:43:34;;;;;;;45.38;20.63;;;;;;;;;;5071722;28;20047;-66
2022/11/13 01:46:16;;;;;;;40.30;19.73;;;;;;;;;;5070180;28;20109;-66
2022/11/13 01:48:47;;;;;;;37.35;19.92;;;;;;;;;;5070434;28;20056;-65
2022/11/13 01:51:18;;;;;;;40.05;19.40;;;;;;;;;;5074650;28;20434;-64
2022/11/13 01:53:46;;;;;;;41.08;20.33;;;;;;;;;;5075610;28;20055;-66
2022/11/13 01:56:12;;;;;;;37.20;18.75;;;;;;;;;;5075751;28;20024;-66
2022/11/13 01:58:40;;;;;;;45.60;19.83;;;;;;;;;;5075561;28;20034;-64
2022/11/13 02:01:05;;;;;;;39.78;19.02;;;;;;;;;;5075406;28;20020;-64
2022/11/13 02:03:31;;;;;;;40.47;20.08;;;;;;;;;;5063809;28;20052;-64
2022/11/13 02:05:56;;;;;;;41.50;19.80;;;;;;;;;;5074979;28;20051;-63
2022/11/13 02:08:22;;;;;;;36.72;18.15;;;;;;;;;;5075467;28;20047;-63
2022/11/13 02:10:48;;;;;;;35.88;18.65;;;;;;;;;;5075359;28;20074;-63
2022/11/13 02:13:14;;;;;;;38.92;17.77;;;;;;;;;;5075230;28;20024;-63
2022/11/13 02:15:41;;;;;;;39.42;18.42;;;;;;;;;;5075253;28;20387;-63
2022/11/13 02:18:07;;;;;;;38.83;19.05;;;;;;;;;;5075227;28;20024;-63
2022/11/13 02:20:42;;;;;;;37.47;18.38;;;;;;;;;;5074993;28;20360;-64
2022/11/13 02:23:28;;;;;;;34.08;15.68;;;;;;;;;;5075032;28;20017;-63
2022/11/13 02:25:53;;;;;;;33.53;16.98;;;;;;;;;;5072361;28;20051;-63
2022/11/13 02:28:19;;;;;;;31.83;17.08;;;;;;;;;;5074887;28;20017;-63
2022/11/13 02:30:45;;;;;;;35.67;17.65;;;;;;;;;;5074992;28;20050;-65
2022/11/13 02:33:25;;;;;;;29.45;15.35;;;;;;;;;;5074229;28;20016;-65
2022/11/13 02:35:51;;;;;;;34.33;17.35;;;;;;;;;;5074753;28;20479;-66
2022/11/13 02:38:17;;;;;;;34.55;17.42;;;;;;;;;;5075102;28;20058;-66
2022/11/13 02:40:42;;;;;;;35.28;17.42;;;;;;;;;;5074990;28;20173;-67
2022/11/13 02:43:08;;;;;;;32.50;16.13;;;;;;;;;;5075106;28;20024;-65
2022/11/13 02:45:33;;;;;;;37.10;18.45;;;;;;;;;;5075122;28;20021;-63
2022/11/13 02:47:59;;;;;;;32.03;16.77;;;;;;;;;;5074984;28;20048;-67
2022/11/13 02:50:25;;;;;;;34.70;16.83;;;;;;;;;;5074618;28;20060;-65
2022/11/13 02:52:51;;;;;;;34.95;17.05;;;;;;;;;;5074983;28;20421;-64
2022/11/13 02:55:16;;;;;;;34.92;17.73;;;;;;;;;;5074875;28;20099;-63
2022/11/13 02:57:41;;;;;;;37.20;18.20;;;;;;;;;;5074895;28;20080;-67
2022/11/13 03:00:08;;;;;;;35.97;17.67;;;;;;;;;;5074749;28;20056;-66
2022/11/13 03:02:33;;;;;;;32.90;15.38;;;;;;;;;;5074728;28;20078;-66
2022/11/13 03:04:59;;;;;;;37.60;17.13;;;;;;;;;;5074332;28;20410;-63
2022/11/13 03:07:24;;;;;;;34.63;16.48;;;;;;;;;;5074671;28;20059;-64
2022/11/13 03:09:50;;;;;;;32.45;16.08;;;;;;;;;;5074511;28;20108;-64
2022/11/13 03:12:15;;;;;;;28.60;15.50;;;;;;;;;;5074540;28;20025;-64
2022/11/13 03:14:41;;;;;;;30.35;16.13;;;;;;;;;;5074517;28;20432;-65
2022/11/13 03:17:06;;;;;;;28.27;14.65;;;;;;;;;;5074399;28;20104;-64
2022/11/13 03:19:32;;;;;;;32.35;15.82;;;;;;;;;;5074330;28;20025;-64
2022/11/13 03:21:58;;;;;;;30.02;16.15;;;;;;;;;;5074408;28;20033;-64
2022/11/13 03:24:23;;;;;;;31.02;15.55;;;;;;;;;;5074282;28;20044;-65
2022/11/13 03:26:48;;;;;;;30.30;15.25;;;;;;;;;;5074417;28;20032;-64
2022/11/13 03:29:14;;;;;;;30.52;14.88;;;;;;;;;;5074331;28;20029;-67
2022/11/13 03:31:40;;;;;;;34.55;16.13;;;;;;;;;;5072120;28;20028;-66
2022/11/13 03:34:05;;;;;;;29.20;15.15;;;;;;;;;;5053918;28;20381;-65
2022/11/13 03:36:30;;;;;;;33.30;16.52;;;;;;;;;;5054181;28;20028;-65
2022/11/13 03:38:56;;;;;;;37.40;17.98;;;;;;;;;;5053995;28;20490;-66
2022/11/13 03:41:22;;;;;;;37.53;18.40;;;;;;;;;;5053815;28;20094;-65
2022/11/13 03:43:47;;;;;;;33.00;17.80;;;;;;;;;;5053941;28;20435;-63
2022/11/13 03:46:13;;;;;;;28.83;15.30;;;;;;;;;;5053873;28;20029;-67
2022/11/13 03:48:39;;;;;;;35.63;17.20;;;;;;;;;;5053913;28;20075;-65
2022/11/13 03:51:05;;;;;;;29.40;16.83;;;;;;;;;;5053743;28;20067;-64
2022/11/13 03:53:31;;;;;;;31.92;17.25;;;;;;;;;;5053625;28;20035;-65
2022/11/13 03:55:56;;;;;;;33.15;17.83;;;;;;;;;;5053641;28;20029;-65
2022/11/13 03:58:22;;;;;;;31.42;17.75;;;;;;;;;;5053858;28;20056;-65
2022/11/13 04:00:49;;;;;;;35.17;18.02;;;;;;;;;;5053812;28;20029;-66
2022/11/13 04:03:14;;;;;;;28.27;16.98;;;;;;;;;;5053316;28;20044;-66
2022/11/13 04:05:41;;;;;;;34.40;19.38;;;;;;;;;;5053472;28;20017;-66
2022/11/13 04:08:07;;;;;;;36.05;18.08;;;;;;;;;;5053672;28;20024;-64
2022/11/13 04:10:35;;;;;;;32.42;16.42;;;;;;;;;;5053555;28;20082;-66
2022/11/13 04:13:01;;;;;;;29.75;15.73;;;;;;;;;;5052912;28;20543;-63
2022/11/13 04:15:32;;;;;;;23.88;14.70;;;;;;;;;;5053424;28;20166;-64
2022/11/13 04:17:58;;;;;;;27.05;14.27;;;;;;;;;;5053067;28;20029;-64
2022/11/13 04:20:26;;;;;;;25.83;13.90;;;;;;;;;;5053266;28;20029;-64
2022/11/13 04:22:53;;;;;;;25.52;14.43;;;;;;;;;;5051947;28;20028;-66
2022/11/13 04:25:21;;;;;;;27.98;15.00;;;;;;;;;;5053537;28;20379;-64
2022/11/13 04:27:51;;;;;;;27.05;15.43;;;;;;;;;;5053210;28;20447;-64
2022/11/13 04:30:22;;;;;;;27.63;14.20;;;;;;;;;;5053160;28;20025;-65
2022/11/13 04:32:48;;;;;;;26.58;14.98;;;;;;;;;;5052678;28;20040;-63
2022/11/13 04:35:17;;;;;;;24.95;15.00;;;;;;;;;;5053045;28;20029;-66
2022/11/13 04:37:54;;;;;;;26.05;14.45;;;;;;;;;;5053156;28;20021;-64
2022/11/13 04:40:19;;;;;;;24.30;14.50;;;;;;;;;;5052895;28;20081;-63
2022/11/13 04:42:48;;;;;;;26.05;14.73;;;;;;;;;;5053103;28;20048;-64
2022/11/13 04:45:15;;;;;;;25.58;14.80;;;;;;;;;;5052548;28;20037;-64
2022/11/13 04:47:41;;;;;;;25.85;15.18;;;;;;;;;;5052913;28;20028;-64
2022/11/13 04:50:06;;;;;;;26.52;14.48;;;;;;;;;;5052955;28;20502;-64
2022/11/13 04:52:32;;;;;;;25.55;15.90;;;;;;;;;;5052872;28;20048;-65
2022/11/13 04:54:57;;;;;;;23.27;14.95;;;;;;;;;;5052861;28;20033;-65
2022/11/13 04:57:23;;;;;;;26.27;14.20;;;;;;;;;;5052889;28;20021;-65
2022/11/13 04:59:48;;;;;;;23.20;13.77;;;;;;;;;;5052555;28;20082;-65
2022/11/13 05:02:14;;;;;;;25.83;14.25;;;;;;;;;;5052787;28;20484;-63
2022/11/13 05:04:39;;;;;;;25.00;13.80;;;;;;;;;;5052686;28;20051;-64
2022/11/13 05:07:05;;;;;;;26.95;14.75;;;;;;;;;;5052492;28;20024;-63
2022/11/13 05:09:30;;;;;;;32.45;15.30;;;;;;;;;;5052615;28;20021;-64
2022/11/13 05:11:56;;;;;;;28.23;15.10;;;;;;;;;;5052730;28;20025;-64
2022/11/13 05:14:21;;;;;;;30.00;16.52;;;;;;;;;;5052457;28;20021;-65
2022/11/13 05:16:48;;;;;;;31.83;16.65;;;;;;;;;;5052610;28;20049;-64
2022/11/13 05:19:14;;;;;;;34.45;16.33;;;;;;;;;;5052402;28;20029;-64
2022/11/13 05:21:40;;;;;;;31.35;16.88;;;;;;;;;;5052452;28;20369;-63
2022/11/13 05:24:06;;;;;;;29.63;18.65;;;;;;;;;;5052468;28;20028;-63
2022/11/13 05:26:31;;;;;;;31.00;18.60;;;;;;;;;;5056607;28;20032;-66
2022/11/13 05:29:00;;;;;;;28.33;16.73;;;;;;;;;;5056448;28;20033;-65
2022/11/13 05:31:26;;;;;;;22.75;14.50;;;;;;;;;;5056671;28;20025;-67
2022/11/13 05:33:52;;;;;;;24.55;13.18;;;;;;;;;;5056576;28;20086;-66
2022/11/13 05:36:18;;;;;;;22.27;13.70;;;;;;;;;;5056608;28;20396;-66
2022/11/13 05:38:44;;;;;;;26.02;13.90;;;;;;;;;;5056493;28;20083;-64
2022/11/13 05:41:13;;;;;;;24.88;14.75;;;;;;;;;;5056247;28;20501;-64
2022/11/13 05:43:39;;;;;;;28.55;16.08;;;;;;;;;;5056181;28;20468;-67
2022/11/13 05:46:09;;;;;;;27.05;14.70;;;;;;;;;;5056499;28;20107;-67
2022/11/13 05:48:35;;;;;;;32.90;15.55;;;;;;;;;;5056243;28;20111;-67
2022/11/13 05:51:06;;;;;;;30.15;14.88;;;;;;;;;;5056258;28;20021;-66
2022/11/13 05:53:33;;;;;;;29.33;15.75;;;;;;;;;;5056043;28;20118;-66
2022/11/13 05:56:11;;;;;;;29.30;16.05;;;;;;;;;;5056131;28;20052;-66
2022/11/13 05:58:37;;;;;;;27.90;15.13;;;;;;;;;;5055941;28;20036;-64
2022/11/13 06:01:08;;;;;;;25.23;13.73;;;;;;;;;;5056037;28;20128;-64
2022/11/13 06:03:34;;;;;;;24.27;14.00;;;;;;;;;;5055939;28;20025;-67
2022/11/13 06:06:00;;;;;;;24.50;14.23;;;;;;;;;;5055995;28;20032;-67
2022/11/13 06:08:26;;;;;;;29.73;13.80;;;;;;;;;;5055849;28;20027;-66
2022/11/13 06:10:52;;;;;;;28.08;14.10;;;;;;;;;;5055986;28;20029;-66
2022/11/13 06:13:17;;;;;;;28.42;13.82;;;;;;;;;;5055684;28;20472;-67
2022/11/13 06:15:43;;;;;;;33.05;16.63;;;;;;;;;;5055753;28;20071;-65
2022/11/13 06:18:08;;;;;;;32.90;17.80;;;;;;;;;;5055713;28;20028;-65
2022/11/13 06:20:35;;;;;;;33.95;16.50;;;;;;;;;;5055727;28;20029;-66
2022/11/13 06:23:00;;;;;;;27.52;16.05;;;;;;;;;;5055551;28;20033;-67
2022/11/13 06:25:27;;;;;;;30.05;16.90;;;;;;;;;;5055711;28;20025;-66
2022/11/13 06:27:53;;;;;;;30.15;17.13;;;;;;;;;;5055345;28;20029;-64
2022/11/13 06:30:18;;;;;;;27.83;16.55;;;;;;;;;;5055406;28;20033;-63
2022/11/13 06:32:44;;;;;;;36.53;17.77;;;;;;;;;;5055311;28;20036;-65
2022/11/13 06:35:09;;;;;;;27.98;17.88;;;;;;;;;;5054973;28;20021;-63
2022/11/13 06:37:35;;;;;;;34.13;17.00;;;;;;;;;;5055259;28;20032;-63
2022/11/13 06:40:00;;;;;;;28.75;16.70;;;;;;;;;;5055296;28;20049;-63
2022/11/13 06:42:26;;;;;;;30.90;16.95;;;;;;;;;;5055052;28;20448;-64
2022/11/13 06:44:51;;;;;;;35.65;18.52;;;;;;;;;;5055143;28;20124;-63
2022/11/13 06:47:17;;;;;;;28.08;14.93;;;;;;;;;;5055248;28;20060;-66
2022/11/13 06:49:42;;;;;;;29.45;14.50;;;;;;;;;;5054831;28;20461;-64
2022/11/13 06:52:08;;;;;;;27.55;13.93;;;;;;;;;;5055217;28;20078;-65
2022/11/13 06:54:33;;;;;;;27.85;13.65;;;;;;;;;;5055097;28;20114;-65
2022/11/13 06:56:58;;;;;;;21.80;12.45;;;;;;;;;;5054861;28;20017;-64
2022/11/13 06:59:24;;;;;;;26.17;12.60;;;;;;;;;;5055006;28;20053;-66
2022/11/13 07:01:50;;;;;;;21.48;12.00;;;;;;;;;;5054927;28;20470;-65
2022/11/13 07:04:15;;;;;;;19.60;11.70;;;;;;;;;;5054778;28;20426;-66
2022/11/13 07:06:41;;;;;;;16.02;8.88;;;;;;;;;;5054900;28;20556;-67
2022/11/13 07:09:06;;;;;;;17.75;9.68;;;;;;;;;;5054231;28;20029;-66
2022/11/13 07:11:32;;;;;;;14.10;7.80;;;;;;;;;;5054591;28;20056;-65
2022/11/13 07:13:57;;;;;;;8.00;5.20;;;;;;;;;;5054540;28;20051;-64
2022/11/13 07:16:23;;;;;;;8.73;5.20;;;;;;;;;;5054570;28;20049;-67
2022/11/13 07:18:50;;;;;;;8.93;5.13;;;;;;;;;;5054568;28;20036;-66
2022/11/13 07:21:16;;;;;;;5.38;2.85;;;;;;;;;;5053330;28;20033;-64
2022/11/13 07:23:42;;;;;;;5.55;3.20;;;;;;;;;;5054394;28;20085;-67
2022/11/13 07:26:10;;;;;;;5.93;2.40;;;;;;;;;;5054256;28;20224;-64
2022/11/13 07:28:36;;;;;;;4.88;3.03;;;;;;;;;;5054370;28;20032;-66
2022/11/13 07:31:02;;;;;;;4.75;2.20;;;;;;;;;;5054341;28;20025;-67
2022/11/13 07:33:28;;;;;;;4.10;2.05;;;;;;;;;;5054330;28;20037;-66
2022/11/13 07:35:55;;;;;;;3.25;1.65;;;;;;;;;;5054343;28;20033;-67
2022/11/13 07:38:21;;;;;;;2.80;1.73;;;;;;;;;;5054190;28;20048;-65
2022/11/13 07:40:46;;;;;;;2.90;2.00;;;;;;;;;;5052669;28;20513;-65
2022/11/13 07:43:12;;;;;;;4.00;2.25;;;;;;;;;;5054063;28;20029;-63
2022/11/13 07:45:38;;;;;;;3.65;2.63;;;;;;;;;;5053155;28;20061;-64
2022/11/13 07:48:04;;;;;;;4.50;3.15;;;;;;;;;;5053122;28;20029;-64
2022/11/13 07:50:35;;;;;;;5.18;3.53;;;;;;;;;;5053800;28;20396;-64
2022/11/13 07:53:04;;;;;;;6.07;3.92;;;;;;;;;;5054053;28;20048;-64
2022/11/13 07:55:31;;;;;;;11.75;6.53;;;;;;;;;;5053680;28;20065;-64
2022/11/13 07:57:58;;;;;;;11.10;6.43;;;;;;;;;;5053861;28;20025;-64
2022/11/13 08:00:25;;;;;;;9.25;6.22;;;;;;;;;;5053762;28;20066;-63
2022/11/13 08:02:50;;;;;;;16.67;11.57;;;;;;;;;;5053858;28;20033;-66
2022/11/13 08:05:16;;;;;;;14.77;9.55;;;;;;;;;;5053666;28;20029;-64
2022/11/13 08:07:41;;;;;;;18.10;10.98;;;;;;;;;;5053786;28;20055;-65
2022/11/13 08:10:07;;;;;;;33.50;17.70;;;;;;;;;;5053365;28;20463;-65
2022/11/13 08:12:33;;;;;;;26.13;14.18;;;;;;;;;;5053633;28;20029;-63
2022/11/13 08:14:59;;;;;;;25.00;12.77;;;;;;;;;;5053543;28;20395;-67
2022/11/13 08:17:24;;;;;;;23.30;13.68;;;;;;;;;;5053622;28;20035;-65
2022/11/13 08:19:49;;;;;;;22.08;12.23;;;;;;;;;;5053251;28;20468;-66
2022/11/13 08:22:15;;;;;;;24.42;14.93;;;;;;;;;;5053395;28;20036;-67
2022/11/13 08:24:40;;;;;;;27.55;14.63;;;;;;;;;;5052954;28;20033;-67
2022/11/13 08:27:06;;;;;;;21.08;13.20;;;;;;;;;;5053316;28;20395;-67
2022/11/13 08:29:32;;;;;;;19.40;11.60;;;;;;;;;;5051908;28;20025;-67
2022/11/13 08:31:58;;;;;;;27.98;17.00;;;;;;;;;;5053027;28;20107;-67
2022/11/13 08:34:23;;;;;;;23.83;13.25;;;;;;;;;;5053249;28;20033;-67
2022/11/13 08:36:49;;;;;;;23.73;13.95;;;;;;;;;;5053265;28;20036;-65
2022/11/13 08:39:14;;;;;;;27.15;16.40;;;;;;;;;;5052629;28;20033;-66
2022/11/13 08:41:40;;;;;;;24.77;12.85;;;;;;;;;;5053028;28;20078;-65
2022/11/13 08:44:05;;;;;;;15.48;10.00;;;;;;;;;;5052841;28;20059;-64
2022/11/13 08:46:31;;;;;;;14.13;7.55;;;;;;;;;;5052892;28;20033;-64
2022/11/13 08:48:58;;;;;;;10.40;5.80;;;;;;;;;;5052651;28;20048;-64
2022/11/13 08:51:23;;;;;;;11.02;7.20;;;;;;;;;;5052794;28;20043;-64
2022/11/13 08:53:48;;;;;;;9.60;5.43;;;;;;;;;;5051374;28;20025;-66
2022/11/13 08:56:14;;;;;;;8.02;5.15;;;;;;;;;;5052938;28;20028;-66
2022/11/13 08:58:39;;;;;;;10.45;5.35;;;;;;;;;;5052550;28;20029;-66
2022/11/13 09:01:05;;;;;;;21.13;11.80;;;;;;;;;;5059639;28;20688;-67
2022/11/13 09:03:30;;;;;;;9.07;5.90;;;;;;;;;;5065354;28;20103;-67
2022/11/13 09:05:56;;;;;;;8.55;5.00;;;;;;;;;;5053109;28;20363;-66
2022/11/13 09:08:21;;;;;;;6.65;4.63;;;;;;;;;;5072330;28;20103;-65
2022/11/13 09:10:47;;;;;;;7.93;4.85;;;;;;;;;;5072677;28;20032;-67
2022/11/13 09:13:12;;;;;;;6.82;4.88;;;;;;;;;;5072664;28;20483;-66
2022/11/13 09:15:38;;;;;;;6.85;5.18;;;;;;;;;;5072570;28;20021;-66
2022/11/13 09:18:04;;;;;;;5.38;3.90;;;;;;;;;;5072755;28;20490;-67
2022/11/13 09:20:32;;;;;;;6.75;4.60;;;;;;;;;;5072045;28;20100;-66
2022/11/13 09:23:03;;;;;;;6.38;4.13;;;;;;;;;;5072019;28;20031;-67
2022/11/13 09:25:30;;;;;;;8.00;4.40;;;;;;;;;;5071951;28;20039;-66
2022/11/13 09:27:58;;;;;;;8.68;5.03;;;;;;;;;;5071657;28;20028;-65
2022/11/13 09:30:26;;;;;;;4.82;3.63;;;;;;;;;;5072001;28;20078;-67
2022/11/13 09:32:53;;;;;;;6.15;4.95;;;;;;;;;;5071925;28;20036;-66
2022/11/13 09:35:32;;;;;;;5.07;3.67;;;;;;;;;;5072314;28;20368;-67
2022/11/13 09:38:03;;;;;;;7.80;5.57;;;;;;;;;;5072337;28;20024;-66
2022/11/13 09:40:33;;;;;;;9.50;6.57;;;;;;;;;;5072334;28;20102;-67
2022/11/13 09:43:01;;;;;;;6.07;4.88;;;;;;;;;;5072552;28;20037;-66
2022/11/13 09:45:29;;;;;;;7.90;4.93;;;;;;;;;;5072188;28;20024;-66
2022/11/13 09:48:00;;;;;;;6.68;4.57;;;;;;;;;;5072478;28;20100;-66
2022/11/13 09:50:30;;;;;;;8.02;5.45;;;;;;;;;;5072142;28;20491;-66
2022/11/13 09:52:56;;;;;;;8.68;5.30;;;;;;;;;;5072232;28;20119;-66
2022/11/13 09:55:28;;;;;;;9.85;6.20;;;;;;;;;;5072240;28;20090;-66
2022/11/13 09:58:05;;;;;;;10.30;7.07;;;;;;;;;;5072343;28;20111;-66
2022/11/13 10:00:33;;;;;;;7.55;4.88;;;;;;;;;;5064642;28;20103;-64
2022/11/13 10:03:23;;;;;;;7.80;4.97;;;;;;;;;;5052211;28;20084;-65
2022/11/13 10:05:55;;;;;;;5.60;3.30;;;;;;;;;;5051927;28;20029;-65
2022/11/13 10:08:27;;;;;;;4.57;2.83;;;;;;;;;;5052017;28;20017;-66
2022/11/13 10:11:11;;;;;;;3.95;2.40;;;;;;;;;;5053223;28;20025;-65
2022/11/13 10:13:43;;;;;;;4.05;2.72;;;;;;;;;;5055881;28;20052;-65
2022/11/13 10:16:32;;;;;;;3.72;2.60;;;;;;;;;;5055933;28;20032;-66
2022/11/13 10:19:24;;;;;;;4.47;3.20;;;;;;;;;;5055527;28;20116;-65
2022/11/13 10:22:11;;;;;;;5.10;3.08;;;;;;;;;;5055712;28;20021;-65
2022/11/13 10:24:42;;;;;;;5.05;3.22;;;;;;;;;;5055592;28;20033;-66
2022/11/13 10:27:10;;;;;;;4.65;2.75;;;;;;;;;;5055684;28;20075;-66
2022/11/13 10:29:36;;;;;;;3.75;2.45;;;;;;;;;;5055589;28;20053;-65
2022/11/13 10:32:16;;;;;;;5.13;3.50;;;;;;;;;;5060131;28;20017;-66
2022/11/13 10:34:48;;;;;;;6.47;4.05;;;;;;;;;;5075448;28;20032;-66
2022/11/13 10:37:30;;;;;;;5.65;3.05;;;;;;;;;;5075444;28;20173;-65
2022/11/13 10:39:56;;;;;;;4.25;2.63;;;;;;;;;;5075159;28;20079;-66
2022/11/13 10:42:35;;;;;;;5.10;2.38;;;;;;;;;;5075385;28;20052;-67
2022/11/13 10:45:01;;;;;;;3.78;2.20;;;;;;;;;;5075264;28;20032;-67
2022/11/13 10:47:30;;;;;;;4.65;2.67;;;;;;;;;;5074901;28;20024;-66
2022/11/13 10:49:56;;;;;;;4.95;3.08;;;;;;;;;;5074846;28;20037;-65
2022/11/13 10:52:27;;;;;;;4.70;2.88;;;;;;;;;;5075076;28;20051;-66
2022/11/13 10:55:19;;;;;;;3.08;1.85;;;;;;;;;;5074910;28;20116;-66
2022/11/13 10:57:55;;;;;;;4.13;3.00;;;;;;;;;;5069809;28;20025;-65
2022/11/13 11:00:29;;;;;;;6.10;3.90;;;;;;;;;;5074395;28;20020;-65
2022/11/13 11:02:54;;;;;;;4.82;3.75;;;;;;;;;;5074164;28;20059;-66
2022/11/13 11:05:23;;;;;;;5.88;4.70;;;;;;;;;;5074360;28;20252;-66
2022/11/13 11:07:49;;;;;;;6.53;5.03;;;;;;;;;;5074402;28;20055;-65
2022/11/13 11:10:34;;;;;;;7.80;5.10;;;;;;;;;;5074560;28;20027;-65
2022/11/13 11:13:10;;;;;;;5.90;3.58;;;;;;;;;;5074609;28;20051;-66
2022/11/13 11:15:46;;;;;;;7.25;4.38;;;;;;;;;;5072760;28;20086;-66
2022/11/13 11:18:32;;;;;;;4.18;2.88;;;;;;;;;;5074482;28;20358;-67
2022/11/13 11:21:00;;;;;;;5.68;3.60;;;;;;;;;;5074409;28;20510;-67
2022/11/13 11:23:45;;;;;;;5.53;2.95;;;;;;;;;;5072903;28;20036;-67
2022/11/13 11:26:16;;;;;;;5.25;3.08;;;;;;;;;;5074845;28;20443;-67
2022/11/13 11:28:48;;;;;;;9.32;4.47;;;;;;;;;;5074512;28;20044;-66
2022/11/13 11:31:36;;;;;;;8.52;4.30;;;;;;;;;;5073133;28;20047;-67
2022/11/13 11:34:14;;;;;;;5.07;3.17;;;;;;;;;;5054415;28;20056;-67
2022/11/13 11:36:51;;;;;;;4.82;2.90;;;;;;;;;;5036317;28;20115;-67
2022/11/13 11:39:19;;;;;;;7.90;4.18;;;;;;;;;;5054168;28;20039;-67
2022/11/13 11:41:54;;;;;;;6.53;3.95;;;;;;;;;;5054311;28;20032;-67
2022/11/13 11:44:35;;;;;;;8.90;4.47;;;;;;;;;;5053943;28;20025;-67
2022/11/13 11:47:00;;;;;;;6.85;4.05;;;;;;;;;;5053889;28;20063;-66
2022/11/13 11:49:26;;;;;;;6.85;4.60;;;;;;;;;;5056077;28;20427;-66
2022/11/13 11:52:03;;;;;;;8.60;5.10;;;;;;;;;;5073073;28;20028;-65
2022/11/13 11:55:24;;;;;;;7.10;3.70;;;;;;;;;;5073682;28;20029;-66
2022/11/13 11:57:55;;;;;;;7.07;3.58;;;;;;;;;;4992517;28;20081;-66
2022/11/13 12:00:21;;;;;;;4.15;2.50;;;;;;;;;;4992076;28;20445;-66
2022/11/13 12:03:01;;;;;;;5.72;3.38;;;;;;;;;;4992319;28;20039;-64
2022/11/13 12:05:29;;;;;;;6.68;4.03;;;;;;;;;;5010296;28;20388;-64
2022/11/13 12:08:47;;;;;;;8.00;6.00;;;;;;;;;;5011102;28;20528;-65
2022/11/13 12:11:27;;;;;;;6.90;4.60;;;;;;;;;;4915219;29;20039;-65
2022/11/13 12:14:00;;;;;;;5.55;3.40;;;;;;;;;;4915343;29;20032;-65
2022/11/13 12:16:39;;;;;;;4.80;3.40;;;;;;;;;;4914892;29;20075;-65
2022/11/13 12:19:34;;;;;;;6.28;3.22;;;;;;;;;;4915086;29;20522;-67
2022/11/13 12:22:20;;;;;;;7.28;3.60;;;;;;;;;;4906864;29;20040;-65
2022/11/13 12:25:18;;;;;;;8.32;3.20;;;;;;;;;;4914801;29;20044;-65
2022/11/13 12:27:55;;;;;;;6.32;4.43;;;;;;;;;;4935379;28;20038;-64
2022/11/13 12:30:32;;;;;;;8.23;5.45;;;;;;;;;;4991674;28;20038;-67
2022/11/13 12:33:15;;;;;;;6.38;4.35;;;;;;;;;;4991397;28;20084;-67
2022/11/13 12:35:46;;;;;;;7.78;5.22;;;;;;;;;;4991732;28;20034;-67
2022/11/13 12:38:17;;;;;;;4.38;3.13;;;;;;;;;;4991535;28;20486;-67
2022/11/13 12:41:02;;;;;;;7.45;4.93;;;;;;;;;;4991596;28;20144;-67
2022/11/13 12:43:33;;;;;;;6.10;3.95;;;;;;;;;;4991379;28;20027;-66
2022/11/13 12:46:10;;;;;;;6.13;4.03;;;;;;;;;;5050014;28;20048;-67
2022/11/13 12:48:41;;;;;;;5.18;3.17;;;;;;;;;;5057251;28;20032;-67
2022/11/13 12:51:17;;;;;;;6.60;4.10;;;;;;;;;;5072742;28;20111;-66
2022/11/13 12:53:43;;;;;;;8.63;4.72;;;;;;;;;;5072843;28;20067;-66
2022/11/13 12:56:28;;;;;;;7.75;5.60;;;;;;;;;;5069911;28;20020;-66
2022/11/13 12:59:19;;;;;;;9.80;6.07;;;;;;;;;;5072576;28;20043;-66
2022/11/13 13:01:56;;;;;;;7.22;4.63;;;;;;;;;;5071404;28;20375;-67
2022/11/13 13:04:27;;;;;;;9.30;5.30;;;;;;;;;;5072515;28;20364;-68
2022/11/13 13:07:21;;;;;;;8.50;4.53;;;;;;;;;;5072686;28;20029;-66
2022/11/13 13:09:55;;;;;;;10.63;5.57;;;;;;;;;;5072451;28;20028;-67
2022/11/13 13:12:43;;;;;;;9.65;4.68;;;;;;;;;;5072354;28;20044;-65
2022/11/13 13:15:37;;;;;;;7.38;4.45;;;;;;;;;;5072635;28;20115;-65
2022/11/13 13:18:15;;;;;;;5.93;3.63;;;;;;;;;;5072411;28;20395;-66
2022/11/13 13:20:45;;;;;;;7.20;4.30;;;;;;;;;;5072602;28;20121;-65
2022/11/13 13:23:12;;;;;;;8.13;4.97;;;;;;;;;;5072579;28;20023;-65
2022/11/13 13:25:38;;;;;;;9.52;5.13;;;;;;;;;;5072457;28;20067;-67
2022/11/13 13:28:07;;;;;;;13.55;6.47;;;;;;;;;;5072392;28;20437;-65
2022/11/13 13:30:47;;;;;;;10.82;6.43;;;;;;;;;;5072608;28;20455;-65
2022/11/13 13:33:17;;;;;;;11.35;6.60;;;;;;;;;;5072357;28;20039;-67
2022/11/13 13:35:56;;;;;;;8.50;5.30;;;;;;;;;;5072450;28;20038;-65
2022/11/13 13:38:58;;;;;;;13.35;6.75;;;;;;;;;;5072247;28;20077;-65
2022/11/13 13:41:47;;;;;;;14.20;6.93;;;;;;;;;;5072307;28;20068;-66
2022/11/13 13:44:24;;;;;;;15.20;7.38;;;;;;;;;;5071990;28;20039;-65
2022/11/13 13:46:50;;;;;;;11.52;6.80;;;;;;;;;;5074949;28;20028;-65
2022/11/13 13:49:19;;;;;;;10.70;5.47;;;;;;;;;;5076311;28;20106;-66
2022/11/13 13:51:48;;;;;;;11.40;6.22;;;;;;;;;;5076349;28;20063;-67
2022/11/13 13:54:25;;;;;;;13.23;6.72;;;;;;;;;;5074804;28;20441;-64
2022/11/13 13:56:52;;;;;;;10.85;6.82;;;;;;;;;;5076050;28;20042;-66
2022/11/13 13:59:34;;;;;;;8.40;4.50;;;;;;;;;;5075810;28;20036;-64
2022/11/13 14:02:02;;;;;;;10.18;5.43;;;;;;;;;;5075778;28;20548;-66
2022/11/13 14:04:34;;;;;;;8.35;4.85;;;;;;;;;;5075781;28;20036;-65
2022/11/13 14:07:01;;;;;;;10.25;5.18;;;;;;;;;;5081985;28;20048;-65
2022/11/13 14:09:28;;;;;;;8.88;4.55;;;;;;;;;;5096281;28;20466;-64
2022/11/13 14:12:06;;;;;;;9.82;6.13;;;;;;;;;;5095918;28;20427;-64
2022/11/13 14:14:32;;;;;;;13.95;8.13;;;;;;;;;;5095911;28;20085;-66
2022/11/13 14:17:00;;;;;;;12.13;6.68;;;;;;;;;;5096112;28;20020;-67
2022/11/13 14:19:26;;;;;;;11.27;6.50;;;;;;;;;;5096064;28;20087;-67
2022/11/13 14:22:00;;;;;;;15.05;7.50;;;;;;;;;;5095967;28;20032;-67
2022/11/13 14:24:54;;;;;;;15.65;8.45;;;;;;;;;;5095696;28;20803;-67
2022/11/13 14:27:23;;;;;;;18.52;9.82;;;;;;;;;;5094544;28;20109;-67
2022/11/13 14:29:52;;;;;;;16.38;9.82;;;;;;;;;;5095413;28;20041;-66
2022/11/13 14:32:37;;;;;;;19.10;9.70;;;;;;;;;;5074132;28;20025;-67
2022/11/13 14:35:04;;;;;;;25.55;13.05;;;;;;;;;;5055487;28;20036;-67
2022/11/13 14:37:38;;;;;;;17.30;10.70;;;;;;;;;;5055515;28;20398;-65
2022/11/13 14:40:17;;;;;;;18.58;8.93;;;;;;;;;;5055238;28;20119;-66
2022/11/13 14:42:48;;;;;;;11.18;6.63;;;;;;;;;;5055601;28;20021;-66